Map

Track Data

SID SEASON NUMBER BASIN SUBBASIN NAME ISO_TIME NATURE LAT LON WMO_WIND WMO_PRES WMO_AGENCY TRACK_TYPE DIST2LAND LANDFALL IFLAG USA_AGENCY USA_ATCF_ID USA_LAT USA_LON USA_RECORD USA_STATUS USA_WIND USA_PRES USA_SSHS USA_R34_NE USA_R34_SE USA_R34_SW USA_R34_NW USA_R50_NE USA_R50_SE USA_R50_SW USA_R50_NW USA_R64_NE USA_R64_SE USA_R64_SW USA_R64_NW USA_POCI USA_ROCI USA_RMW USA_EYE TOKYO_LAT TOKYO_LON TOKYO_GRADE TOKYO_WIND TOKYO_PRES TOKYO_R50_DIR TOKYO_R50_LONG TOKYO_R50_SHORT TOKYO_R30_DIR TOKYO_R30_LONG TOKYO_R30_SHORT TOKYO_LAND CMA_LAT CMA_LON CMA_CAT CMA_WIND CMA_PRES HKO_LAT HKO_LON HKO_CAT HKO_WIND HKO_PRES NEWDELHI_LAT NEWDELHI_LON NEWDELHI_GRADE NEWDELHI_WIND NEWDELHI_PRES NEWDELHI_CI NEWDELHI_DP NEWDELHI_POCI REUNION_LAT REUNION_LON REUNION_TYPE REUNION_WIND REUNION_PRES REUNION_TNUM REUNION_CI REUNION_RMW REUNION_R34_NE REUNION_R34_SE REUNION_R34_SW REUNION_R34_NW REUNION_R50_NE REUNION_R50_SE REUNION_R50_SW REUNION_R50_NW REUNION_R64_NE REUNION_R64_SE REUNION_R64_SW REUNION_R64_NW BOM_LAT BOM_LON BOM_TYPE BOM_WIND BOM_PRES BOM_TNUM BOM_CI BOM_RMW BOM_R34_NE BOM_R34_SE BOM_R34_SW BOM_R34_NW BOM_R50_NE BOM_R50_SE BOM_R50_SW BOM_R50_NW BOM_R64_NE BOM_R64_SE BOM_R64_SW BOM_R64_NW BOM_ROCI BOM_POCI BOM_EYE BOM_POS_METHOD BOM_PRES_METHOD NADI_LAT NADI_LON NADI_CAT NADI_WIND NADI_PRES WELLINGTON_LAT WELLINGTON_LON WELLINGTON_WIND WELLINGTON_PRES DS824_LAT DS824_LON DS824_STAGE DS824_WIND DS824_PRES TD9636_LAT TD9636_LON TD9636_STAGE TD9636_WIND TD9636_PRES TD9635_LAT TD9635_LON TD9635_WIND TD9635_PRES TD9635_ROCI NEUMANN_LAT NEUMANN_LON NEUMANN_CLASS NEUMANN_WIND NEUMANN_PRES MLC_LAT MLC_LON MLC_CLASS MLC_WIND MLC_PRES USA_GUST BOM_GUST BOM_GUST_PER REUNION_GUST REUNION_GUST_PER USA_SEAHGT USA_SEARAD_NE USA_SEARAD_SE USA_SEARAD_SW USA_SEARAD_NW STORM_SPEED STORM_DIR
1961074S14162 1961 31 SP MM ISIS 1961-03-15 06:00:00 TS -14.0000 162.000 999 bom main 358 347 ______O__O____ -1 -14.0000 162.000 999 -14.0000 162.000 TC 30 999 4 43
1961074S14162 1961 31 SP MM ISIS 1961-03-15 09:00:00 TS -13.8506 162.148 main 347 304 ______P__P____ -1 -13.8794 162.176 -13.8219 162.120 TC 9 54
1961074S14162 1961 31 SP MM ISIS 1961-03-15 12:00:00 TS -13.5018 162.708 main 305 298 O_____P__PO_O_ jtwc_sh SH271961 -13.0000 163.600 -1 -13.7547 162.349 -13.6514 162.246 TC -13.0000 163.600 1 -13.8000 162.500 TC 30 999 10 63
1961074S14162 1961 31 SP MM ISIS 1961-03-15 15:00:00 TS -13.4174 163.039 main 300 300 P_____P__PP_P_ SH271961 -13.1476 163.975 -1 -13.6221 162.515 -13.4963 162.381 TC -13.1567 163.920 1 -13.6500 162.650 TC 30 999 7 79
1961074S14162 1961 31 SP MM ISIS 1961-03-15 18:00:00 TS -13.3800 163.384 main 314 314 O_____P__PP_O_ jtwc_sh SH271961 -13.3000 164.300 -1 -13.4777 162.671 -13.3642 162.532 TC -13.3105 164.222 1 -13.5000 162.800 TC 30 999 6 87
1961074S14162 1961 31 SP MM ISIS 1961-03-15 21:00:00 TS -13.3841 163.672 main 328 328 P_____P__PP_P_ SH271961 -13.4574 164.538 -1 -13.3175 162.814 -13.2629 162.703 TC -13.4590 164.488 1 -13.3500 162.950 TC 30 999 5 91
1961074S14162 1961 31 SP MM ISIS 1961-03-15 23:00:00 TS -13.3886 163.787 999 bom main 330 330 P_____O__PP_P_ SH271961 -13.5557 164.653 -1 -13.2000 162.900 999 -13.2162 162.831 TC -13.5540 164.637 1 -13.2500 163.050 TC 30 999 3 92
1961074S14162 1961 31 SP MM ISIS 1961-03-16 00:00:00 TS -13.3897 163.840 main 330 311 O_____P__OO_O_ jtwc_sh SH271961 -13.6000 164.700 -1 -13.1380 162.940 998 -13.2000 162.900 TC 30 999 -13.6000 164.700 1 -13.2000 163.100 TC 30 999 3 88
1961074S14162 1961 31 SP MM ISIS 1961-03-16 03:00:00 TS -13.3818 163.984 main 311 302 P_____P__PP_P_ SH271961 -13.7000 164.815 -1 -12.9578 163.058 998 -13.1814 163.126 TC -13.7320 164.846 1 -13.0200 163.243 TC 32 998 3 92
1961074S14162 1961 31 SP MM ISIS 1961-03-16 06:00:00 TS -13.3987 164.118 main 302 293 O_____P__PP_O_ jtwc_sh SH271961 -13.8000 164.900 -1 -12.8294 163.190 997 -13.2059 163.373 TC -13.8573 164.945 1 -12.9000 163.400 TC 35 997 3 105
1961074S14162 1961 31 SP MM ISIS 1961-03-16 08:00:00 TS -13.4431 164.214 997 bom main 293 278 P_____O__PP_P_ SH271961 -13.8975 164.961 -1 -12.8000 163.300 997 -13.2447 163.545 TC -13.9386 164.997 1 -12.8800 163.520 TC 35 997 3 118
1961074S14162 1961 31 SP MM ISIS 1961-03-16 09:00:00 TS -13.4753 164.266 main 278 263 P_____P__PP_P_ SH271961 -13.9500 164.993 -1 -12.8126 163.373 -13.2706 163.633 TC -13.9789 165.021 1 -12.8900 163.585 TC 35 997 4 126
1961074S14162 1961 31 SP MM ISIS 1961-03-16 12:00:00 TS -13.6014 164.438 main 263 239 O_____P__PO_O_ jtwc_sh SH271961 -14.1000 165.100 -1 -12.9359 163.629 -13.3728 163.896 TC -14.1000 165.100 1 -13.0000 163.800 TC 35 997 5 127
1961074S14162 1961 31 SP MM ISIS 1961-03-16 15:00:00 TS -13.7526 164.641 main 233 209 P_____P__PP_P_ SH271961 -14.2000 165.250 -1 -13.1609 163.924 -13.5096 164.154 TC -14.2250 165.234 1 -13.2200 164.035 TC 35 997 5 129
1961074S14162 1961 31 SP MM ISIS 1961-03-16 18:00:00 TS -13.9303 164.850 main 199 179 O_____P__PP_O_ jtwc_sh SH271961 -14.3000 165.400 -1 -13.4536 164.232 -13.6782 164.397 TC -14.3501 165.372 1 -13.5000 164.300 TC 35 997 5 134
1961074S14162 1961 31 SP MM ISIS 1961-03-16 21:00:00 TS -14.1289 165.046 main 179 150 P_____P__PP_P_ SH271961 -14.4500 165.515 -1 -13.7802 164.525 -13.8759 164.615 TC -14.4750 165.500 1 -13.7425 164.608 TC 35 997 5 138
1961074S14162 1961 31 SP MM ISIS 1961-03-16 23:00:00 TS -14.2663 165.162 997 bom main 150 150 P_____O__PP_P_ SH271961 -14.5531 165.575 -1 -14.0000 164.700 997 -14.0225 164.743 TC -14.5583 165.571 1 -13.9110 164.809 TC 35 997 5 142
1961074S14162 1961 31 SP MM ISIS 1961-03-17 00:00:00 TS -14.3323 165.213 main 150 133 O_____P__OO_O_ jtwc_sh SH271961 -14.6000 165.600 -1 -14.0937 164.779 997 -14.1000 164.800 TC 35 997 -14.6000 165.600 1 -14.0000 164.900 TC 35 997 5 145
1961074S14162 1961 31 SP MM ISIS 1961-03-17 03:00:00 TS -14.5224 165.345 main 133 118 P_____P__PP_P_ SH271961 -14.7000 165.665 -1 -14.3868 164.996 997 -14.3261 164.954 TC -14.7290 165.658 1 -14.2925 165.130 TC 35 997 5 151
1961074S14162 1961 31 SP MM ISIS 1961-03-17 06:00:00 TS -14.7221 165.440 main 118 107 O_____P__PP_O_ jtwc_sh SH271961 -14.8000 165.700 -1 -14.6917 165.173 997 -14.5834 165.080 TC -14.8575 165.688 1 -14.6000 165.300 TC 35 997 4 160
1961074S14162 1961 31 SP MM ISIS 1961-03-17 09:00:00 TS -14.9415 165.504 997 bom main 108 108 P_____O__PP_P_ SH271961 -14.9500 165.708 -1 -15.0000 165.300 997 -14.8670 165.178 TC -14.9822 165.698 1 -14.9000 165.430 TC 35 996 5 168
1961074S14162 1961 31 SP MM ISIS 1961-03-17 12:00:00 TS -15.1615 165.538 main 116 107 O_____P__PO_O_ jtwc_sh SH271961 -15.1000 165.700 -1 -15.2972 165.385 -15.1717 165.246 TC -15.1000 165.700 1 -15.2000 165.500 TC 35 996 4 173
1961074S14162 1961 31 SP MM ISIS 1961-03-17 15:00:00 TS -15.3573 165.559 main 107 107 P_____P__PP_P_ SH271961 -15.2075 165.700 -1 -15.5944 165.418 -15.4924 165.283 TC -15.1422 165.735 1 -15.5000 165.515 TC 35 996 4 178
1961074S14162 1961 31 SP MM ISIS 1961-03-17 18:00:00 TS -15.5508 165.559 main 109 109 O_____P__PP_O_ jtwc_sh SH271961 -15.3000 165.700 -1 -15.8933 165.405 -15.8241 165.289 TC -15.1874 165.759 1 -15.8000 165.500 TC 35 996 4 183
1961074S14162 1961 31 SP MM ISIS 1961-03-17 21:00:00 TS -15.7402 165.553 main 112 112 P_____P__PP_P_ SH271961 -15.3475 165.715 -1 -16.1957 165.353 -16.1617 165.261 TC -15.2890 165.754 1 -16.1000 165.522 TC 35 996 4 184
1961074S14162 1961 31 SP MM ISIS 1961-03-17 23:00:00 TS -15.8925 165.531 996 bom main 130 130 P_____O__PP_P_ SH271961 -15.4267 165.711 -1 -16.4000 165.300 996 -16.3874 165.224 TC -15.4142 165.724 1 -16.3000 165.517 TC 35 996 5 191
1961074S14162 1961 31 SP MM ISIS 1961-03-18 00:00:00 TS -15.9829 165.516 main 135 135 O_____P__OO_O_ jtwc_sh SH271961 -15.5000 165.700 -1 -16.4976 165.293 -16.5000 165.200 TC 35 996 -15.5000 165.700 2 -16.4000 165.500 TC 35 996 7 190
1961074S14162 1961 31 SP MM ISIS 1961-03-18 03:00:00 TS -16.3226 165.449 main 163 163 P_____P__PP_P_ SH271961 -15.8825 165.637 -1 -16.7891 165.261 -16.7840 165.172 TC -15.9052 165.604 2 -16.6925 165.380 TC 35 996 8 193
1961074S14162 1961 31 SP MM ISIS 1961-03-18 06:00:00 TS -16.7280 165.329 main 195 195 O_____P__PP_O_ jtwc_sh SH271961 -16.4000 165.500 -1 -17.0824 165.204 -17.0683 165.114 TC -16.4173 165.455 2 -17.0000 165.200 TC 35 996 9 198
1961074S14162 1961 31 SP MM ISIS 1961-03-18 09:00:00 TS -17.1653 165.158 main 236 236 P_____P__PP_P_ SH271961 -16.9650 165.280 -1 -17.3822 165.115 -17.3587 165.020 TC -16.9708 165.254 2 -17.3500 165.000 TC 35 996 9 203
1961074S14162 1961 31 SP MM ISIS 1961-03-18 12:00:00 TS -17.5923 164.945 main 288 264 O_____P__PO_O_ jtwc_sh SH271961 -17.5000 165.000 -1 -17.6930 164.985 -17.6609 164.884 TC -17.5000 165.000 1 -17.7000 164.800 TC 35 996 9 208
1961074S14162 1961 31 SP MM ISIS 1961-03-18 15:00:00 TS -17.9418 164.723 main 264 216 P_____P__PP_P_ SH271961 -17.8724 164.722 -1 -18.0194 164.803 -17.9805 164.700 TC -17.9062 164.748 1 -18.0000 164.642 TC 35 996 8 214
1961074S14162 1961 31 SP MM ISIS 1961-03-18 18:00:00 TS -18.2780 164.461 main 216 179 O_____P__PP_O_ jtwc_sh SH271961 -18.2000 164.400 -1 -18.3659 164.562 -18.3232 164.463 TC -18.2789 164.441 1 -18.3000 164.500 TC 35 996 9 217
1961074S14162 1961 31 SP MM ISIS 1961-03-18 21:00:00 TS -18.6467 164.163 main 179 145 P_____P__PP_P_ SH271961 -18.5922 164.052 -1 -18.7369 164.251 -18.6946 164.165 TC -18.6371 164.063 1 -18.6273 164.395 TC 35 996 10 219
1961074S14162 1961 31 SP MM ISIS 1961-03-18 23:00:00 TS -18.9058 163.919 996 bom main 146 135 P_____O__PP_P_ SH271961 -18.8639 163.767 -1 -19.0000 164.000 996 -18.9607 163.929 TC -18.8774 163.765 1 -18.8692 164.284 TC 35 996 11 223
1961074S14162 1961 31 SP MM ISIS 1961-03-19 00:00:00 TS -19.0405 163.777 main 137 115 O_____P__OO_O_ jtwc_sh SH271961 -19.0000 163.600 -1 -19.1430 163.860 996 -19.1000 163.800 TC 35 996 -19.0000 163.600 1 -19.0000 164.200 TC 35 996 13 228
1961074S14162 1961 31 SP MM ISIS 1961-03-19 03:00:00 TS -19.4612 163.255 main 114 114 P_____P__PP_P_ SH271961 -19.4001 162.987 -1 -19.5809 163.397 996 -19.5546 163.370 TC 35 996 -19.3741 162.988 1 -19.4576 163.803 TC 35 996 13 231
1961074S14162 1961 31 SP MM ISIS 1961-03-19 06:00:00 TS -19.8762 162.667 996 bom main 142 142 O_____O__OP_O_ jtwc_sh SH271961 -19.8000 162.300 -1 -20.0000 162.900 996 -20.0000 162.900 TC 35 996 -19.7574 162.301 1 -19.9000 163.300 TC 35 996 14 235
1961074S14162 1961 31 SP MM ISIS 1961-03-19 09:00:00 TS -20.2397 162.077 main 198 198 P_____P__PP_P_ SH271961 -20.1924 161.635 -1 -20.3162 162.381 -20.3452 162.398 TC -20.1617 161.613 1 -20.2300 162.800 TC 37 995 13 237
1961074S14162 1961 31 SP MM ISIS 1961-03-19 12:00:00 TS -20.5839 161.504 main 262 262 O_____P__PO_O_ jtwc_sh SH271961 -20.6000 161.000 -1 -20.5749 161.850 -20.6286 161.876 TC -20.6000 161.000 2 -20.5000 162.300 TC 40 995 12 237
1961074S14162 1961 31 SP MM ISIS 1961-03-19 15:00:00 TS -20.9206 160.961 main 319 319 P_____P__PP_P_ SH271961 -21.0201 160.375 -1 -20.8111 161.330 -20.8827 161.359 TC -21.0396 160.479 2 -20.7498 161.850 TC 40 995 12 233
1961074S14162 1961 31 SP MM ISIS 1961-03-19 18:00:00 TS -21.2871 160.496 main 380 380 O_____P__PP_O_ jtwc_sh SH271961 -21.5000 159.900 -1 -21.0600 160.849 -21.1405 160.873 TC -21.5218 160.054 2 -21.0000 161.400 TC 40 995 11 225
1961074S14162 1961 31 SP MM ISIS 1961-03-19 21:00:00 TS -21.7017 160.129 main 433 433 P_____P__PP_P_ SH271961 -22.0472 159.645 -1 -21.3573 160.431 -21.4351 160.445 TC -22.0680 159.752 2 -21.2553 160.855 TC 40 995 11 214
1961074S14162 1961 31 SP EA ISIS 1961-03-19 23:00:00 TS -22.0257 159.959 995 bom main 456 470 P_____O__PP_P_ SH271961 -22.4692 159.595 -1 -21.6000 160.200 995 -21.6685 160.204 TC -22.4785 159.632 2 -21.4690 160.529 TC 40 995 11 203
1961074S14162 1961 31 SP EA ISIS 1961-03-20 00:00:00 TS -22.2003 159.900 main 474 474 O_____P__OO_O_ jtwc_sh SH271961 -22.7000 159.600 -1 -21.7017 160.102 994 -21.8000 160.100 TC 40 995 -22.7000 159.600 2 -21.6000 160.400 TC 40 995 12 189
1961074S14162 1961 31 SP EA ISIS 1961-03-20 03:00:00 TS -22.7775 159.822 main 516 516 P_____P__PP_P_ SH271961 -23.4625 159.697 -1 -22.0415 159.863 994 -22.1272 159.857 TC 40 994 -23.4588 159.621 2 -22.1122 160.197 TC 40 994 12 183
1961074S14162 1961 31 SP EA ISIS 1961-03-20 06:00:00 TS -23.4388 159.845 main 554 554 O_____P__PP_O_ jtwc_sh SH271961 -24.3000 159.900 -1 -22.4895 159.693 994 -22.5460 159.688 TC 40 994 -24.2975 159.788 2 -22.7000 160.100 TC 40 994 14 178
1961074S14162 1961 31 SP EA ISIS 1961-03-20 09:00:00 TS -24.1521 159.889 main 598 598 P_____P__PP_P_ SH271961 -25.1650 160.100 -1 -23.1181 159.578 994 -23.1418 159.575 TC 40 994 -25.1624 160.037 2 -23.1601 159.942 TC 40 994 15 176
1961074S14162 1961 31 SP EA ISIS 1961-03-20 12:00:00 TS -24.9667 159.950 994 bom main 642 642 O_____O__OO_O_ jtwc_sh SH271961 -26.0000 160.300 -1 -24.0000 159.500 994 -24.0000 159.500 TC 40 994 -26.0000 160.300 2 -23.8000 159.800 TC 40 994 17 176
1961074S14162 1961 31 SP MM ISIS 1961-03-20 15:00:00 TS -25.8873 160.013 main 669 659 P_____P__PP_P_ SH271961 -26.7224 160.451 -1 -25.1641 159.452 993 -25.1654 159.456 TC 42 993 -26.7195 160.576 2 -24.8301 159.692 TC 42 993 19 177
1961074S14162 1961 31 SP MM ISIS 1961-03-20 18:00:00 TS -26.8845 160.073 992 bom main 656 637 O_____O__OP_O_ jtwc_sh SH271961 -27.4000 160.600 -1 -26.5000 159.400 992 -26.5000 159.400 TC 45 992 -27.4069 160.838 2 -26.1000 159.600 TC 45 992 20 177
1961074S14162 1961 31 SP MM ISIS 1961-03-20 21:00:00 TS -27.9214 160.142 main 637 633 P_____P__PP_P_ SH271961 -28.0849 160.888 -1 -27.9076 159.297 989 -27.8950 159.258 TC 47 990 -28.0908 161.006 2 -27.4649 159.514 TC 47 990 21 178
1961074S14162 1961 31 SP MM ISIS 1961-03-20 23:00:00 TS -28.6056 160.138 988 bom main 633 631 P_____O__PP_P_ SH271961 -28.5551 161.004 -1 -28.8000 159.200 988 -28.7904 159.150 TC 49 988 -28.5590 161.026 2 -28.3738 159.444 TC 49 988 20 182
1961074S14162 1961 31 SP MM ISIS 1961-03-21 00:00:00 TS -28.9356 160.103 main 631 615 O_____P__OO_O_ jtwc_sh SH271961 -28.8000 161.000 -1 -29.2135 159.117 987 -29.2000 159.100 TC 50 988 -28.8000 161.000 2 -28.8000 159.400 TC 50 988 19 191
1961074S14162 1961 31 SP EA ISIS 1961-03-21 03:00:00 TS -29.8586 159.859 main 619 606 P_____P__PP_P_ SH271961 -29.5853 160.656 -1 -30.3085 158.858 986 -30.2349 158.985 TC 50 987 -29.5617 160.602 2 -29.9699 159.179 TC 52 987 18 193
1961074S14162 1961 31 SP EA ISIS 1961-03-21 05:00:00 TS -30.3904 159.699 986 bom main 611 611 P_____O__PP_P_ SH271961 -30.1282 160.290 -1 -30.9000 158.800 986 -30.8200 158.927 TC 50 986 -30.0855 160.234 2 -30.6228 159.044 TC 54 986 15 193
1961074S14162 1961 31 SP EA ISIS 1961-03-21 06:00:00 TS -30.6110 159.659 main 617 604 O_____P__OP_O_ jtwc_sh SH271961 -30.4000 160.100 -1 -31.1510 158.838 985 -31.1000 158.900 TC 50 986 -30.3516 160.038 2 -30.9000 159.000 TC 55 986 14 196
1961074S14162 1961 31 SP EA ISIS 1961-03-21 08:00:00 TS -31.0445 159.480 984 bom main 605 598 P_____O___P_P_ SH271961 -30.9229 159.700 -1 -31.6000 159.000 984 4 TC -30.8914 159.653 2 -31.3021 158.988 TC 53 14 201
1961074S14162 1961 31 SP EA ISIS 1961-03-21 09:00:00 TS -31.2502 159.373 main 598 573 P_________P_P_ SH271961 -31.1855 159.505 -1 TC -31.1649 159.478 2 -31.4649 159.004 TC 52 15 199
1961074S14162 1961 31 SP EA ISIS 1961-03-21 12:00:00 TS -32.0000 159.100 main 576 576 O_________O_O_ jtwc_sh SH271961 -32.0000 159.100 -1 -32.0000 159.100 1 -32.0000 159.100 TC 50 17 187
1961074S14162 1961 31 SP EA ISIS 1961-03-21 15:00:00 TS -32.9054 159.151 main 608 608 P_________P_P_ SH271961 -32.8922 159.171 -1 -32.9251 159.122 1 -32.9123 159.141 TC 47 19 172
1961074S14162 1961 31 SP EA ISIS 1961-03-21 18:00:00 TS -33.8403 159.415 main 654 654 O_________P_O_ jtwc_sh SH271961 -33.8000 159.500 -1 -33.8611 159.361 1 -33.9000 159.300 TC 45 19 164
1961074S14162 1961 31 SP EA ISIS 1961-03-21 21:00:00 TS -34.7341 159.767 main 721 721 P_________P_P_ SH271961 -34.7099 159.812 -1 -34.7415 159.746 1 -34.7752 159.696 TC 45 18 159
1961074S14162 1961 31 SP MM ISIS 1961-03-22 00:00:00 TS -35.5000 160.200 main 788 788 O_________O_O_ jtwc_sh SH271961 -35.5000 160.200 -1 -35.5000 160.200 3 -35.5000 160.200 TC 45 15 152
1961074S14162 1961 31 SP MM ISIS 1961-03-22 03:00:00 TS -36.0566 160.633 main 849 849 P_________P_P_ SH271961 -36.0749 160.636 -1 -36.0668 160.609 3 -36.0098 160.651 TC 42 12 144
1961074S14162 1961 31 SP MM ISIS 1961-03-22 06:00:00 TS -36.4770 161.091 main 909 909 O_________P_O_ jtwc_sh SH271961 -36.5000 161.100 -1 -36.5078 161.065 3 -36.4000 161.100 TC 40 11 137
1961074S14162 1961 31 SP MM ISIS 1961-03-22 09:00:00 TS -36.8574 161.553 main 969 932 P_________P_P_ SH271961 -36.8724 161.558 -1 -36.8699 161.538 3 -36.8149 161.558 TC 37 10 135
1961074S14162 1961 31 SP MM ISIS 1961-03-22 12:00:00 TS -37.2000 162.000 main 932 885 O_________O_O_ jtwc_sh SH271961 -37.2000 162.000 -1 -37.2000 162.000 1 -37.2000 162.000 TC 35 10 135
1961074S14162 1961 31 SP MM ISIS 1961-03-22 15:00:00 TS -37.5321 162.394 main 885 838 P_________P_P_ SH271961 -37.5498 162.408 -1 -37.4715 162.352 1 -37.5573 162.408 TC 32 9 137
1961074S14162 1961 31 SP MM ISIS 1961-03-22 18:00:00 TS -37.8596 162.775 main 828 795 O_________P_O_ jtwc_sh SH271961 -37.9000 162.800 -1 -37.7384 162.698 1 -37.9000 162.800 TC 30 8 136
1961074S14162 1961 31 SP MM ISIS 1961-03-22 21:00:00 TS -38.1447 163.137 main 795 725 P_________P_P_ SH271961 -38.1668 163.158 -1 -38.0863 163.094 1 -38.1590 163.137 TC 30 10 139
1961074S14162 1961 31 SP MM ISIS 1961-03-23 00:00:00 TS -38.6000 163.600 main 725 622 O_________O_O_ jtwc_sh SH271961 -38.6000 163.600 -1 -38.6000 163.600 1 -38.6000 163.600 TC 30 16 146
1961074S14162 1961 31 SP MM ISIS 1961-03-23 03:00:00 TS -39.4285 164.264 main 618 492 P_________P_P_ SH271961 -39.4020 164.211 -1 -39.4494 164.254 1 -39.4607 164.380 TC 30 22 148
1961074S14162 1961 31 SP MM ISIS 1961-03-23 06:00:00 TS -40.4382 165.087 main 488 358 O_________P_O_ jtwc_sh SH271961 -40.4000 165.000 -1 -40.4527 165.047 1 -40.5000 165.300 TC 30 24 147
1961074S14162 1961 31 SP MM ISIS 1961-03-23 09:00:00 TS -41.4656 165.990 main 344 220 P_________P_P_ SH271961 -41.4448 165.938 -1 -41.4796 165.967 1 -41.4934 166.114 TC 30 24 144
1961074S14162 1961 31 SP MM ISIS 1961-03-23 12:00:00 TS -42.4000 167.000 main 216 111 O_________O_O_ jtwc_sh SH271961 -42.4000 167.000 -1 -42.4000 167.000 1 -42.4000 167.000 TC 30 22 137
1961074S14162 1961 31 SP MM ISIS 1961-03-23 15:00:00 TS -43.1078 168.068 main 106 11 P_________P_P_ SH271961 -43.0883 168.059 -1 -43.1156 168.121 1 -43.1389 168.034 TC 30 20 127
1961074S14162 1961 31 SP MM ISIS 1961-03-23 18:00:00 TS -43.6376 169.227 main 11 0 O_________P_O_ jtwc_sh SH271961 -43.6000 169.200 -1 -43.6506 169.307 1 -43.7000 169.200 TC 30 20 118
1961074S14162 1961 31 SP MM ISIS 1961-03-23 21:00:00 TS -44.0514 170.483 main 0 0 P_________P_P_ SH271961 -44.0236 170.461 -1 -44.0603 170.540 1 -44.0982 170.471 TC 30 20 112
1961074S14162 1961 31 SP MM ISIS 1961-03-24 00:00:00 TS -44.4000 171.800 main 32 O_________O_O_ jtwc_sh SH271961 -44.4000 171.800 -1 -44.4000 171.800 1 -44.4000 171.800 TC 30 20 110

Digital Typhoon Data and Search

About IBTrACS Database

This database is a web-friendly format of International Best Track Archive for Climate Stewardship (IBTrACS), a global best track data archive curated by NOAA dating back to 1842.

Updated: 2021-10-08